createdAt,value
2018-04-11T00:02:01.868Z,79.80
2018-04-11T00:04:27.955Z,79.70
2018-04-11T00:06:53.994Z,79.40
2018-04-11T00:09:20.165Z,79.20
2018-04-11T00:11:46.234Z,79.00
2018-04-11T00:14:12.257Z,78.80
2018-04-11T00:16:38.463Z,79.70
2018-04-11T00:19:05.220Z,78.80
2018-04-11T00:21:31.255Z,78.80
2018-04-11T00:23:57.263Z,78.90
2018-04-11T00:26:23.295Z,78.60
2018-04-11T00:28:49.351Z,78.70
2018-04-11T00:31:15.408Z,78.70
2018-04-11T00:33:42.328Z,79.40
2018-04-11T00:36:08.354Z,79.10
2018-04-11T00:38:34.414Z,79.30
2018-04-11T00:41:00.451Z,79.20
2018-04-11T00:43:26.511Z,79.00
2018-04-11T00:45:52.554Z,78.50
2018-04-11T00:48:18.755Z,78.40
2018-04-11T00:50:44.787Z,78.20
2018-04-11T00:53:10.849Z,77.80
2018-04-11T00:55:37.603Z,78.40
2018-04-11T00:58:03.664Z,78.40
2018-04-11T01:00:29.731Z,78.60
2018-04-11T01:02:56.676Z,78.70
2018-04-11T01:05:23.749Z,79.10
2018-04-11T01:07:49.827Z,79.10
2018-04-11T01:10:15.926Z,79.40
2018-04-11T01:12:41.947Z,78.90
2018-04-11T01:15:08.007Z,78.70
2018-04-11T01:17:34.818Z,78.90
2018-04-11T01:20:00.867Z,78.30
2018-04-11T01:22:27.063Z,78.20
2018-04-11T01:24:53.094Z,78.20
2018-04-11T01:27:19.160Z,78.40
2018-04-11T01:29:45.166Z,78.40
2018-04-11T01:32:11.207Z,78.30
2018-04-11T01:34:37.998Z,79.10
2018-04-11T01:37:04.202Z,78.60
2018-04-11T01:39:30.227Z,79.00
2018-04-11T01:41:56.274Z,78.90
2018-04-11T01:44:22.307Z,79.00
2018-04-11T01:46:48.370Z,79.00
2018-04-11T01:49:15.138Z,80.00
2018-04-11T01:51:41.324Z,80.00
2018-04-11T01:54:07.363Z,79.90
2018-04-11T01:56:34.165Z,80.70
2018-04-11T01:59:00.199Z,80.50
2018-04-11T02:01:26.242Z,80.50
2018-04-11T02:03:52.483Z,80.80
2018-04-11T02:06:19.286Z,81.60
2018-04-11T02:08:45.470Z,81.50
2018-04-11T02:11:11.497Z,81.20
2018-04-11T02:13:37.579Z,81.10
2018-04-11T02:16:03.622Z,81.90
2018-04-11T02:18:29.665Z,80.80
2018-04-11T02:20:55.753Z,80.80
2018-04-11T02:23:21.780Z,80.80
2018-04-11T02:25:47.987Z,80.60
2018-04-11T02:28:14.022Z,80.50
2018-04-11T02:30:40.113Z,80.30
2018-04-11T02:33:06.142Z,80.10
2018-04-11T02:35:32.219Z,79.90
2018-04-11T02:37:59.015Z,79.30
2018-04-11T02:40:25.192Z,79.20
2018-04-11T02:42:52.018Z,79.60
2018-04-11T02:45:18.049Z,79.60
2018-04-11T02:47:44.149Z,79.50
2018-04-11T02:50:10.218Z,79.70
2018-04-11T02:52:36.297Z,79.50
2018-04-11T02:55:02.340Z,79.30
2018-04-11T02:57:28.481Z,79.50
2018-04-11T02:59:55.251Z,79.10
2018-04-11T03:02:21.358Z,79.10
2018-04-11T03:04:47.670Z,79.20
2018-04-11T03:07:13.758Z,79.20
2018-04-11T03:09:39.784Z,79.10
2018-04-11T03:12:05.794Z,79.20
2018-04-11T03:14:31.806Z,79.50
2018-04-11T03:16:57.845Z,79.40
2018-04-11T03:19:23.887Z,79.30
2018-04-11T03:21:49.947Z,79.30
2018-04-11T03:24:15.991Z,79.10
2018-04-11T03:26:42.003Z,79.30
2018-04-11T03:29:08.163Z,79.50
2018-04-11T03:31:34.208Z,79.40
2018-04-11T03:34:00.262Z,79.70
2018-04-11T03:36:26.291Z,79.80
2018-04-11T03:38:53.063Z,79.60
2018-04-11T03:41:19.102Z,79.60
2018-04-11T03:43:45.103Z,79.50
2018-04-11T03:46:11.293Z,80.10
2018-04-11T03:48:37.329Z,80.20
2018-04-11T03:51:04.122Z,80.10
2018-04-11T03:53:30.150Z,80.00
2018-04-11T03:55:56.235Z,80.00
2018-04-11T03:58:22.267Z,80.00
2018-04-11T04:00:48.312Z,80.60
2018-04-11T04:03:14.659Z,81.10
2018-04-11T04:05:40.668Z,81.80
2018-04-11T04:08:06.790Z,82.10
2018-04-11T04:10:32.855Z,81.90
2018-04-11T04:12:58.921Z,81.90
2018-04-11T04:15:24.930Z,81.70
2018-04-11T04:17:51.833Z,81.30
2018-04-11T04:20:17.847Z,81.20
2018-04-11T04:22:43.928Z,81.40
2018-04-11T04:25:09.954Z,81.40
2018-04-11T04:27:36.010Z,81.60
2018-04-11T04:30:02.028Z,81.60
2018-04-11T04:32:28.208Z,81.60
2018-04-11T04:34:54.223Z,81.50
2018-04-11T04:37:20.317Z,81.90
2018-04-11T04:39:46.332Z,82.20
2018-04-11T04:42:13.129Z,83.20
2018-04-11T04:44:39.887Z,83.20
2018-04-11T04:47:05.888Z,83.20
2018-04-11T04:49:32.701Z,82.80
2018-04-11T04:51:58.702Z,82.80
2018-04-11T04:54:24.757Z,83.40
2018-04-11T04:56:50.765Z,83.70
2018-04-11T04:59:16.789Z,82.60
2018-04-11T05:01:42.803Z,82.70
2018-04-11T05:04:09.131Z,83.60
2018-04-11T05:06:35.198Z,84.60
2018-04-11T05:09:01.967Z,83.70
2018-04-11T05:11:28.012Z,83.70
2018-04-11T05:13:54.047Z,83.30
2018-04-11T05:16:20.085Z,83.00
2018-04-11T05:18:46.135Z,83.10
2018-04-11T05:21:13.015Z,83.80
2018-04-11T05:23:39.035Z,83.70
2018-04-11T05:26:05.087Z,83.40
2018-04-11T05:28:31.118Z,83.00
2018-04-11T05:30:57.154Z,82.90
2018-04-11T05:33:23.191Z,85.50
2018-04-11T05:35:49.362Z,86.10
2018-04-11T05:38:15.379Z,87.50
2018-04-11T05:40:41.374Z,88.50
2018-04-11T05:43:08.161Z,88.00
2018-04-11T05:45:34.193Z,88.00
2018-04-11T05:48:00.262Z,88.30
2018-04-11T05:50:27.026Z,86.70
2018-04-11T05:52:53.213Z,86.70
2018-04-11T05:55:19.247Z,86.80
2018-04-11T05:57:46.051Z,86.50
2018-04-11T06:00:12.059Z,86.50
2018-04-11T06:02:38.106Z,86.60
2018-04-11T06:05:04.275Z,87.80
2018-04-11T06:07:31.070Z,87.80
2018-04-11T06:09:57.300Z,87.70
2018-04-11T06:12:23.359Z,87.00
2018-04-11T06:14:50.127Z,86.80
2018-04-11T06:17:16.134Z,86.80
2018-04-11T06:19:42.219Z,86.50
2018-04-11T06:22:08.235Z,87.40
2018-04-11T06:24:34.407Z,87.90
2018-04-11T06:27:00.442Z,88.00
2018-04-11T06:29:26.469Z,87.50
2018-04-11T06:31:52.491Z,87.10
2018-04-11T06:34:18.518Z,87.10
2018-04-11T06:36:44.604Z,87.00
2018-04-11T06:39:10.631Z,86.70
2018-04-11T06:41:36.774Z,86.20
2018-04-11T06:44:03.552Z,87.20
2018-04-11T06:46:29.651Z,87.20
2018-04-11T06:48:56.410Z,87.10
2018-04-11T06:51:22.470Z,87.10
2018-04-11T06:53:48.479Z,87.80
2018-04-11T06:56:14.555Z,86.30
2018-04-11T06:58:41.303Z,86.00
2018-04-11T07:01:07.358Z,85.90
2018-04-11T07:03:33.551Z,85.40
2018-04-11T07:05:59.625Z,84.90
2018-04-11T07:08:25.628Z,84.60
2018-04-11T07:10:51.806Z,83.50
2018-04-11T07:13:18.568Z,83.50
2018-04-11T07:15:45.297Z,81.50
2018-04-11T07:18:12.197Z,80.70
2018-04-11T07:20:38.206Z,81.40
2018-04-11T07:23:04.379Z,80.30
2018-04-11T07:25:31.167Z,81.60
2018-04-11T07:27:57.374Z,81.60
2018-04-11T07:30:23.388Z,82.30
2018-04-11T07:32:50.256Z,82.70
2018-04-11T07:35:16.262Z,82.70
2018-04-11T07:37:42.290Z,82.00
2018-04-11T07:40:08.397Z,82.80
2018-04-11T07:42:34.372Z,82.30
2018-04-11T07:45:00.395Z,82.20
2018-04-11T07:47:26.454Z,83.40
2018-04-11T07:49:52.474Z,81.20
2018-04-11T07:52:18.514Z,79.70
2018-04-11T07:54:45.301Z,81.50
2018-04-11T07:57:11.359Z,81.40
2018-04-11T07:59:37.393Z,78.50
2018-04-11T08:02:03.430Z,79.10
2018-04-11T08:04:30.345Z,80.50
2018-04-11T08:06:56.378Z,80.60
2018-04-11T08:09:22.459Z,78.50
2018-04-11T08:11:48.478Z,79.20
2018-04-11T08:14:14.664Z,79.70
2018-04-11T08:16:40.677Z,81.50
2018-04-11T08:19:06.700Z,77.90
2018-04-11T08:21:32.758Z,80.80
2018-04-11T08:23:58.822Z,80.70
2018-04-11T08:26:24.822Z,79.40
2018-04-11T08:28:50.881Z,78.30
2018-04-11T08:31:16.899Z,79.80
2018-04-11T08:33:43.062Z,78.80
2018-04-11T08:36:09.834Z,79.20
2018-04-11T08:38:35.879Z,79.10
2018-04-11T08:41:02.790Z,78.60
2018-04-11T08:43:28.833Z,78.50
2018-04-11T08:45:54.863Z,79.60
2018-04-11T08:48:20.882Z,78.50
2018-04-11T08:50:47.035Z,76.10
2018-04-11T08:53:13.084Z,79.30
2018-04-11T08:55:39.878Z,77.80
2018-04-11T08:58:05.912Z,77.70
2018-04-11T09:00:31.949Z,75.70
2018-04-11T09:02:57.975Z,79.40
2018-04-11T09:05:24.156Z,77.10
2018-04-11T09:07:50.226Z,76.40
2018-04-11T09:10:16.423Z,76.50
2018-04-11T09:12:42.477Z,79.20
2018-04-11T09:15:08.494Z,73.00
2018-04-11T09:17:34.675Z,72.40
2018-04-11T09:20:00.706Z,71.50
2018-04-11T09:22:26.750Z,72.40
2018-04-11T09:24:52.780Z,70.60
2018-04-11T09:27:18.786Z,66.30
2018-04-11T09:29:44.858Z,67.60
2018-04-11T09:32:10.888Z,63.90
2018-04-11T09:34:37.063Z,64.10
2018-04-11T09:37:03.154Z,63.30
2018-04-11T09:39:29.905Z,60.00
2018-04-11T09:41:56.701Z,61.10
2018-04-11T09:44:22.699Z,61.20
2018-04-11T09:46:48.767Z,58.50
2018-04-11T09:49:14.807Z,57.30
2018-04-11T09:51:41.619Z,60.70
2018-04-11T09:54:07.705Z,60.60
2018-04-11T09:56:33.748Z,59.10
2018-04-11T09:59:00.330Z,58.40
2018-04-11T10:01:27.174Z,59.30
2018-04-11T10:03:53.375Z,59.30
2018-04-11T10:06:19.408Z,59.30
2018-04-11T10:08:45.545Z,61.10
2018-04-11T10:11:11.570Z,59.60
2018-04-11T10:13:37.626Z,59.80
2018-04-11T10:16:03.667Z,62.20
2018-04-11T10:18:29.745Z,60.60
2018-04-11T10:20:56.525Z,65.60
2018-04-11T10:23:22.670Z,65.60
2018-04-11T10:25:48.691Z,61.80
2018-04-11T10:28:14.759Z,60.60
2018-04-11T10:30:41.568Z,61.80
2018-04-11T10:33:07.608Z,61.80
2018-04-11T10:35:33.647Z,61.10
2018-04-11T10:38:00.421Z,59.30
2018-04-11T10:40:26.646Z,58.70
2018-04-11T10:42:52.663Z,56.70
2018-04-11T10:45:18.779Z,61.30
2018-04-11T10:47:44.815Z,59.40
2018-04-11T10:50:10.852Z,58.80
2018-04-11T10:52:36.895Z,58.00
2018-04-11T10:55:02.933Z,57.80
2018-04-11T10:57:29.101Z,58.90
2018-04-11T10:59:55.178Z,57.40
2018-04-11T11:02:21.262Z,55.70
2018-04-11T11:04:47.458Z,55.40
2018-04-11T11:07:13.530Z,57.00
2018-04-11T11:09:39.608Z,57.40
2018-04-11T11:12:05.626Z,55.60
2018-04-11T11:14:31.814Z,53.40
2018-04-11T11:16:57.870Z,55.10
2018-04-11T11:19:23.933Z,52.30
2018-04-11T11:21:50.000Z,53.70
2018-04-11T11:24:16.076Z,55.10
2018-04-11T11:26:42.851Z,51.90
2018-04-11T11:29:09.078Z,51.80
2018-04-11T11:31:35.123Z,54.20
2018-04-11T11:34:01.183Z,54.00
2018-04-11T11:36:27.201Z,52.70
2018-04-11T11:38:54.083Z,51.70
2018-04-11T11:41:22.838Z,51.60
2018-04-11T11:43:49.116Z,50.70
2018-04-11T11:46:15.213Z,47.80
2018-04-11T11:48:41.303Z,47.30
2018-04-11T11:51:08.308Z,49.00
2018-04-11T11:53:34.331Z,48.80
2018-04-11T11:56:01.372Z,47.90
2018-04-11T11:58:27.411Z,52.30
2018-04-11T12:00:53.625Z,48.90
2018-04-11T12:03:19.653Z,50.60
2018-04-11T12:05:45.788Z,49.50
2018-04-11T12:08:12.040Z,48.50
2018-04-11T12:10:38.854Z,48.50
2018-04-11T12:13:04.994Z,48.40
2018-04-11T12:15:31.080Z,46.80
2018-04-11T12:17:57.196Z,48.40
2018-04-11T12:20:23.265Z,50.90
2018-04-11T12:22:49.355Z,52.10
2018-04-11T12:25:15.401Z,46.80
2018-04-11T12:27:41.515Z,49.60
2018-04-11T12:30:07.631Z,47.50
2018-04-11T12:32:33.807Z,47.20
2018-04-11T12:34:59.876Z,48.50
2018-04-11T12:37:25.985Z,49.60
2018-04-11T12:39:52.824Z,47.00
2018-04-11T12:42:19.702Z,46.70
2018-04-11T12:44:45.806Z,46.80
2018-04-11T12:47:11.890Z,49.10
2018-04-11T12:49:38.029Z,46.30
2018-04-11T12:52:04.074Z,46.90
2018-04-11T12:54:30.896Z,46.40
2018-04-11T12:56:56.950Z,46.40
2018-04-11T12:59:22.974Z,49.00
2018-04-11T13:01:49.039Z,45.40
2018-04-11T13:04:15.223Z,45.30
2018-04-11T13:06:41.410Z,50.20
2018-04-11T13:09:07.483Z,47.50
2018-04-11T13:11:33.573Z,47.00
2018-04-11T13:13:59.626Z,46.80
2018-04-11T13:16:25.690Z,47.20
2018-04-11T13:18:51.729Z,45.10
2018-04-11T13:21:17.875Z,45.70
2018-04-11T13:23:44.654Z,44.20
2018-04-11T13:26:10.813Z,44.20
2018-04-11T13:28:36.866Z,44.20
2018-04-11T13:31:03.784Z,42.70
2018-04-11T13:33:29.835Z,45.30
2018-04-11T13:35:55.941Z,47.00
2018-04-11T13:38:22.051Z,47.50
2018-04-11T13:40:48.066Z,46.40
2018-04-11T13:43:14.113Z,46.90
2018-04-11T13:45:40.146Z,45.50
2018-04-11T13:48:06.206Z,45.50
2018-04-11T13:50:32.219Z,46.90
2018-04-11T13:52:58.384Z,46.40
2018-04-11T13:55:24.395Z,47.60
2018-04-11T13:57:50.443Z,47.30
2018-04-11T14:00:16.447Z,45.70
2018-04-11T14:02:42.481Z,46.60
2018-04-11T14:05:08.529Z,45.10
2018-04-11T14:07:34.529Z,44.80
2018-04-11T14:10:00.866Z,46.50
2018-04-11T14:12:27.011Z,45.60
2018-04-11T14:14:53.066Z,45.40
2018-04-11T14:17:19.090Z,44.50
2018-04-11T14:19:45.154Z,42.60
2018-04-11T14:22:11.188Z,45.50
2018-04-11T14:24:37.359Z,43.60
2018-04-11T14:27:04.291Z,45.70
2018-04-11T14:29:30.295Z,45.60
2018-04-11T14:31:56.358Z,46.50
2018-04-11T14:34:22.366Z,47.10
2018-04-11T14:36:48.423Z,45.80
2018-04-11T14:39:14.498Z,45.50
2018-04-11T14:41:40.531Z,46.10
2018-04-11T14:44:07.250Z,46.20
2018-04-11T14:46:33.335Z,46.50
2018-04-11T14:48:59.813Z,47.60
2018-04-11T14:51:25.899Z,46.40
2018-04-11T14:53:51.947Z,47.50
2018-04-11T14:56:18.868Z,47.40
2018-04-11T14:58:44.906Z,47.20
2018-04-11T15:01:10.998Z,45.80
2018-04-11T15:03:38.142Z,46.30
2018-04-11T15:06:04.183Z,44.90
2018-04-11T15:08:30.223Z,42.90
2018-04-11T15:10:56.280Z,43.20
2018-04-11T15:13:23.487Z,43.60
2018-04-11T15:15:49.558Z,42.90
2018-04-11T15:18:15.766Z,44.50
2018-04-11T15:20:41.885Z,45.00
2018-04-11T15:23:09.625Z,46.00
2018-04-11T15:25:36.468Z,46.00
2018-04-11T15:28:03.580Z,47.20
2018-04-11T15:30:30.615Z,47.40
2018-04-11T15:32:56.671Z,47.30
2018-04-11T17:00:25.619Z,50.00
2018-04-11T17:02:52.390Z,50.30
2018-04-11T17:05:18.606Z,50.30
2018-04-11T17:07:45.375Z,48.30
2018-04-11T17:10:11.585Z,48.30
2018-04-11T17:12:37.635Z,48.90
2018-04-11T17:15:03.674Z,48.50
2018-04-11T17:17:29.667Z,48.60
2018-04-11T17:19:55.688Z,47.70
2018-04-11T17:22:21.757Z,48.90
2018-04-11T17:24:48.713Z,50.10
2018-04-11T17:27:14.729Z,49.50
2018-04-11T17:29:40.803Z,49.40
2018-04-11T17:32:06.832Z,49.30
2018-04-11T17:34:32.876Z,50.40
2018-04-11T17:36:59.044Z,50.20
2018-04-11T17:39:25.812Z,50.40
2018-04-11T17:41:51.905Z,50.40
2018-04-11T17:44:18.003Z,49.90
2018-04-11T17:46:44.061Z,50.60
2018-04-11T17:49:10.868Z,51.10
2018-04-11T17:51:36.893Z,51.10
2018-04-11T17:54:03.080Z,50.50
2018-04-11T17:56:29.166Z,51.20
2018-04-11T17:58:55.198Z,50.90
2018-04-11T18:01:21.196Z,51.60
2018-04-11T18:03:47.383Z,52.20
2018-04-11T18:06:13.396Z,52.40
2018-04-11T18:08:39.722Z,52.30
2018-04-11T18:11:05.733Z,52.30
2018-04-11T18:13:32.564Z,53.30
2018-04-11T18:15:58.578Z,53.30
2018-04-11T18:18:24.657Z,53.50
2018-04-11T18:20:50.721Z,53.90
2018-04-11T18:23:16.904Z,53.90
2018-04-11T18:25:42.968Z,53.90
2018-04-11T18:28:08.968Z,54.30
2018-04-11T18:30:35.000Z,54.60
2018-04-11T18:33:01.170Z,54.90
2018-04-11T18:35:27.930Z,55.20
2018-04-11T18:37:53.965Z,55.20
2018-04-11T18:40:20.015Z,55.30
2018-04-11T18:42:46.043Z,55.50
2018-04-11T18:45:12.102Z,55.20
2018-04-11T18:47:38.854Z,56.00
2018-04-11T18:50:05.068Z,55.90
2018-04-11T18:52:31.127Z,56.20
2018-04-11T18:54:57.228Z,56.10
2018-04-11T18:57:23.271Z,56.40
2018-04-11T18:59:49.367Z,56.70
2018-04-11T19:02:15.371Z,56.60
2018-04-11T19:04:41.511Z,56.70
2018-04-11T19:07:07.538Z,56.90
2018-04-11T19:09:33.688Z,57.00
2018-04-11T19:11:59.817Z,57.10
2018-04-11T19:14:25.859Z,57.40
2018-04-11T19:16:51.935Z,57.30
2018-04-11T19:19:18.753Z,56.80
2018-04-11T19:21:44.926Z,56.70
2018-04-11T19:24:10.933Z,56.90
2018-04-11T19:26:37.765Z,57.10
2018-04-11T19:29:03.785Z,57.10
2018-04-11T19:31:29.872Z,57.30
2018-04-11T19:33:55.886Z,57.50
2018-04-11T19:36:22.019Z,57.40
2018-04-11T19:38:48.026Z,57.40
2018-04-11T19:41:14.048Z,57.90
2018-04-11T19:43:40.106Z,58.00
2018-04-11T19:46:06.128Z,57.90
2018-04-11T19:48:32.192Z,58.20
2018-04-11T19:50:58.214Z,58.20
2018-04-11T19:53:24.292Z,58.40
2018-04-11T19:55:50.444Z,58.80
2018-04-11T19:58:16.451Z,59.10
2018-04-11T20:00:42.472Z,59.10
2018-04-11T20:03:08.524Z,59.30
2018-04-11T20:05:34.575Z,59.40
2018-04-11T20:08:01.353Z,59.70
2018-04-11T20:10:27.543Z,59.60
2018-04-11T20:12:53.609Z,60.10
2018-04-11T20:15:19.667Z,60.80
2018-04-11T20:17:45.684Z,60.90
2018-04-11T20:20:12.366Z,61.50
2018-04-11T20:22:38.382Z,61.90
2018-04-11T20:25:04.551Z,61.90
2018-04-11T20:27:30.586Z,62.70
2018-04-11T20:29:56.637Z,63.30
2018-04-11T20:32:23.426Z,64.00
2018-04-11T20:34:49.453Z,63.90
2018-04-11T20:37:15.494Z,63.60
2018-04-11T20:39:41.532Z,63.90
2018-04-11T20:42:07.699Z,64.40
2018-04-11T20:44:33.700Z,64.70
2018-04-11T20:46:59.748Z,65.10
2018-04-11T20:49:25.764Z,65.20
2018-04-11T20:51:51.824Z,65.20
2018-04-11T20:54:17.839Z,65.60
2018-04-11T20:56:43.868Z,65.70
2018-04-11T20:59:09.928Z,65.80
2018-04-11T21:01:35.945Z,66.30
2018-04-11T21:04:02.273Z,66.10
2018-04-11T21:06:28.299Z,66.40
2018-04-11T21:08:54.367Z,66.30
2018-04-11T21:11:20.370Z,66.40
2018-04-11T21:13:47.212Z,66.70
2018-04-11T21:16:13.987Z,67.20
2018-04-11T21:18:40.240Z,67.20
2018-04-11T21:21:06.241Z,67.50
2018-04-11T21:23:32.326Z,67.60
2018-04-11T21:25:59.143Z,68.10
2018-04-11T21:28:25.292Z,68.10
2018-04-11T21:30:52.104Z,69.00
2018-04-11T21:33:18.134Z,69.00
2018-04-11T21:35:44.314Z,68.90
2018-04-11T21:38:10.409Z,69.50
2018-04-11T21:40:36.463Z,69.70
2018-04-11T21:43:02.496Z,69.90
2018-04-11T21:45:28.680Z,70.10
2018-04-11T21:47:54.702Z,70.20
2018-04-11T21:50:20.862Z,70.40
2018-04-11T21:52:46.880Z,70.60
2018-04-11T21:55:12.910Z,70.30
2018-04-11T21:57:38.956Z,70.50
2018-04-11T22:00:04.996Z,70.30
2018-04-11T22:02:31.029Z,70.40
2018-04-11T22:04:57.207Z,70.10
2018-04-11T22:07:23.392Z,70.00
2018-04-11T22:09:49.468Z,70.00
2018-04-11T22:12:15.523Z,70.30
2018-04-11T22:14:41.544Z,70.60
2018-04-11T22:17:07.587Z,70.70
2018-04-11T22:19:33.624Z,70.70
2018-04-11T22:21:59.659Z,70.80
2018-04-11T22:24:26.453Z,71.20
2018-04-11T22:26:52.493Z,71.10
2018-04-11T22:29:18.562Z,71.50
2018-04-11T22:31:45.349Z,72.10
2018-04-11T22:34:11.383Z,72.10
2018-04-11T22:36:37.457Z,72.10
2018-04-11T22:39:03.503Z,72.00
2018-04-11T22:41:29.644Z,72.20
2018-04-11T22:43:55.668Z,72.30
2018-04-11T22:46:21.745Z,72.00
2018-04-11T22:48:47.776Z,72.10
2018-04-11T22:51:13.818Z,72.20
2018-04-11T22:53:39.895Z,72.00
2018-04-11T22:56:05.908Z,72.20
2018-04-11T22:58:31.956Z,72.10
2018-04-11T23:00:58.744Z,72.10
2018-04-11T23:03:24.817Z,72.00
2018-04-11T23:05:51.713Z,72.00
2018-04-11T23:08:17.874Z,71.90
2018-04-11T23:10:44.011Z,71.80
2018-04-11T23:13:10.009Z,71.50
2018-04-11T23:15:36.049Z,71.40
2018-04-11T23:18:02.069Z,70.90
2018-04-11T23:20:28.094Z,70.50
2018-04-11T23:22:54.098Z,70.20
2018-04-11T23:25:20.223Z,69.90
2018-04-11T23:27:46.235Z,69.50
2018-04-11T23:30:12.271Z,69.30
2018-04-11T23:32:38.313Z,69.00
2018-04-11T23:35:04.308Z,69.00
2018-04-11T23:37:30.476Z,69.00
2018-04-11T23:39:57.230Z,69.90
2018-04-11T23:42:23.313Z,69.00
2018-04-11T23:44:49.362Z,69.10
2018-04-11T23:47:15.446Z,69.00
2018-04-11T23:49:41.490Z,68.60
2018-04-11T23:52:07.636Z,68.00
2018-04-11T23:54:33.662Z,67.50
2018-04-11T23:57:00.459Z,67.10
2018-04-11T23:59:26.496Z,67.10
